createdAt,value
2023-05-22T00:00:23.624Z,13.92
2023-05-22T00:02:29.001Z,13.83
2023-05-22T00:04:34.367Z,13.83
2023-05-22T00:06:39.544Z,13.71
2023-05-22T00:08:44.822Z,13.63
2023-05-22T00:10:49.855Z,13.63
2023-05-22T00:12:57.509Z,13.68
2023-05-22T00:15:02.579Z,13.62
2023-05-22T00:17:08.302Z,13.59
2023-05-22T00:19:19.042Z,13.55
2023-05-22T00:21:24.643Z,13.57
2023-05-22T00:23:30.654Z,13.51
2023-05-22T00:25:36.023Z,13.53
2023-05-22T00:27:41.104Z,13.44
2023-05-22T00:29:49.412Z,13.39
2023-05-22T00:31:54.499Z,13.39
2023-05-22T00:34:00.129Z,13.31
2023-05-22T00:36:05.378Z,13.19
2023-05-22T00:38:11.621Z,13.17
2023-05-22T00:40:18.629Z,13.09
2023-05-22T00:42:23.911Z,13.09
2023-05-22T00:44:29.567Z,13.01
2023-05-22T00:46:37.289Z,12.97
2023-05-22T00:48:43.136Z,12.87
2023-05-22T00:50:48.440Z,12.81
2023-05-22T00:52:53.839Z,12.88
2023-05-22T00:54:59.424Z,12.87
2023-05-22T00:57:04.887Z,12.66
2023-05-22T00:59:10.282Z,12.64
2023-05-22T01:01:15.749Z,12.69
2023-05-22T01:03:27.288Z,12.77
2023-05-22T01:05:33.289Z,12.80
2023-05-22T01:07:38.809Z,12.71
2023-05-22T01:09:43.858Z,12.69
2023-05-22T01:12:02.608Z,12.67
2023-05-22T01:14:18.179Z,12.63
2023-05-22T01:16:32.451Z,12.64
2023-05-22T01:18:46.786Z,12.67
2023-05-22T01:21:04.519Z,12.66
2023-05-22T01:24:02.186Z,12.58
2023-05-22T01:26:26.491Z,12.51
2023-05-22T01:28:56.960Z,12.46
2023-05-22T01:31:11.505Z,12.42
2023-05-22T01:33:20.011Z,12.46
2023-05-22T01:35:26.351Z,12.49
2023-05-22T01:37:32.596Z,12.37
2023-05-22T01:39:39.238Z,12.21
2023-05-22T01:41:44.597Z,12.11
2023-05-22T01:43:50.015Z,12.02
2023-05-22T01:45:55.124Z,11.92
2023-05-22T01:48:03.379Z,11.88
2023-05-22T01:50:10.026Z,11.83
2023-05-22T01:52:30.292Z,11.81
2023-05-22T01:54:46.506Z,11.74
2023-05-22T01:57:00.283Z,11.73
2023-05-22T01:59:13.426Z,11.66
2023-05-22T02:01:22.696Z,11.61
2023-05-22T02:03:34.179Z,11.53
2023-05-22T02:05:41.696Z,11.48
2023-05-22T02:07:47.606Z,11.45
2023-05-22T02:09:54.736Z,11.39
2023-05-22T02:12:02.939Z,11.33
2023-05-22T02:14:09.428Z,11.27
2023-05-22T02:16:16.025Z,11.22
2023-05-22T02:18:22.763Z,11.28
2023-05-22T02:20:30.751Z,11.21
2023-05-22T02:22:36.442Z,11.24
2023-05-22T02:24:44.233Z,11.17
2023-05-22T02:26:49.398Z,11.12
2023-05-22T02:28:56.039Z,11.04
2023-05-22T02:31:01.232Z,11.08
2023-05-22T02:33:09.850Z,11.01
2023-05-22T02:35:14.950Z,11.02
2023-05-22T02:37:23.026Z,11.02
2023-05-22T02:39:28.151Z,11.02
2023-05-22T02:41:33.289Z,10.95
2023-05-22T02:43:38.506Z,10.90
2023-05-22T02:45:43.838Z,10.95
2023-05-22T02:47:50.058Z,10.90
2023-05-22T02:49:58.070Z,10.90
2023-05-22T02:52:03.171Z,10.86
2023-05-22T02:54:10.974Z,10.81
2023-05-22T02:56:16.399Z,10.81
2023-05-22T02:58:23.405Z,10.90
2023-05-22T03:00:29.760Z,10.85
2023-05-22T03:02:37.005Z,10.87
2023-05-22T03:04:42.123Z,10.83
2023-05-22T03:06:48.212Z,10.85
2023-05-22T03:08:53.398Z,10.93
2023-05-22T03:11:02.533Z,10.93
2023-05-22T03:13:07.703Z,10.89
2023-05-22T03:15:14.359Z,10.82
2023-05-22T03:17:21.298Z,10.94
2023-05-22T03:19:27.048Z,10.91
2023-05-22T03:21:32.706Z,10.90
2023-05-22T03:23:37.844Z,10.85
2023-05-22T03:25:43.108Z,10.83
2023-05-22T03:27:51.099Z,10.82
2023-05-22T03:29:56.823Z,10.73
2023-05-22T03:32:03.693Z,10.75
2023-05-22T03:34:09.231Z,10.81
2023-05-22T03:36:16.588Z,10.87
2023-05-22T03:38:21.659Z,11.00
2023-05-22T03:40:27.738Z,10.95
2023-05-22T03:42:32.792Z,10.99
2023-05-22T03:44:40.926Z,10.97
2023-05-22T03:46:46.672Z,11.00
2023-05-22T03:48:53.805Z,10.90
2023-05-22T03:50:58.935Z,10.88
2023-05-22T03:53:04.023Z,10.89
2023-05-22T03:55:12.680Z,10.93
2023-05-22T03:57:20.184Z,10.92
2023-05-22T03:59:26.485Z,10.88
2023-05-22T04:01:34.148Z,10.92
2023-05-22T04:03:39.502Z,11.05
2023-05-22T04:05:45.377Z,11.18
2023-05-22T04:09:58.796Z,11.33
2023-05-22T04:12:05.727Z,11.43
2023-05-22T04:14:13.212Z,11.46
2023-05-22T04:16:19.131Z,11.50
2023-05-22T04:18:26.924Z,11.54
2023-05-22T04:20:32.464Z,11.58
2023-05-22T04:22:38.717Z,11.76
2023-05-22T04:24:43.868Z,11.79
2023-05-22T04:26:51.935Z,11.83
2023-05-22T04:28:56.999Z,11.89
2023-05-22T04:31:02.629Z,11.96
2023-05-22T04:33:08.662Z,12.03
2023-05-22T04:35:18.818Z,12.06
2023-05-22T04:37:24.938Z,12.10
2023-05-22T04:39:30.036Z,12.19
2023-05-22T04:41:36.452Z,12.25
2023-05-22T04:43:41.768Z,12.38
2023-05-22T04:45:49.423Z,12.50
2023-05-22T04:47:55.893Z,12.65
2023-05-22T04:50:02.677Z,12.76
2023-05-22T04:52:11.812Z,12.91
2023-05-22T04:54:17.035Z,13.03
2023-05-22T04:56:34.760Z,13.12
2023-05-22T04:58:42.738Z,13.29
2023-05-22T05:00:49.505Z,13.43
2023-05-22T05:02:55.665Z,13.60
2023-05-22T05:05:00.917Z,13.77
2023-05-22T05:07:07.614Z,13.95
2023-05-22T05:09:15.323Z,14.11
2023-05-22T05:11:21.962Z,14.33
2023-05-22T05:13:27.760Z,14.47
2023-05-22T05:15:33.417Z,14.59
2023-05-22T05:17:41.613Z,14.69
2023-05-22T05:19:47.570Z,14.84
2023-05-22T05:21:53.436Z,14.99
2023-05-22T05:23:59.902Z,15.13
2023-05-22T05:26:08.772Z,15.27
2023-05-22T05:28:14.343Z,15.42
2023-05-22T05:30:21.769Z,15.56
2023-05-22T05:32:44.483Z,15.72
2023-05-22T05:35:01.286Z,15.85
2023-05-22T05:37:19.645Z,15.99
2023-05-22T05:39:26.906Z,16.12
2023-05-22T05:41:34.606Z,16.32
2023-05-22T05:43:44.998Z,16.58
2023-05-22T05:45:50.482Z,16.66
2023-05-22T05:47:55.997Z,16.74
2023-05-22T05:50:02.116Z,16.77
2023-05-22T05:52:10.837Z,16.82
2023-05-22T05:54:16.149Z,16.97
2023-05-22T05:56:23.390Z,16.96
2023-05-22T05:58:32.368Z,16.93
2023-05-22T06:00:58.326Z,17.06
2023-05-22T06:03:04.203Z,17.11
2023-05-22T06:05:38.764Z,17.17
2023-05-22T06:08:04.420Z,17.34
2023-05-22T06:10:12.905Z,17.48
2023-05-22T06:12:41.369Z,17.66
2023-05-22T06:14:50.078Z,17.90
2023-05-22T06:16:55.574Z,17.96
2023-05-22T06:19:02.130Z,18.09
2023-05-22T06:21:07.635Z,18.13
2023-05-22T06:23:12.751Z,18.19
2023-05-22T06:25:19.343Z,18.36
2023-05-22T06:27:29.009Z,18.49
2023-05-22T06:29:34.125Z,18.52
2023-05-22T06:31:42.028Z,18.61
2023-05-22T06:33:47.820Z,18.72
2023-05-22T06:35:53.348Z,18.68
2023-05-22T06:37:59.195Z,18.83
2023-05-22T06:40:05.309Z,18.87
2023-05-22T06:42:20.676Z,18.94
2023-05-22T06:44:44.206Z,18.95
2023-05-22T06:46:52.472Z,19.13
2023-05-22T06:49:01.578Z,19.17
2023-05-22T06:51:16.508Z,19.13
2023-05-22T06:53:25.648Z,19.29
2023-05-22T06:55:30.935Z,19.38
2023-05-22T06:57:44.864Z,19.38
2023-05-22T06:59:50.952Z,19.50
2023-05-22T07:02:17.236Z,19.53
2023-05-22T07:04:55.445Z,19.63
2023-05-22T07:07:09.625Z,19.72
2023-05-22T07:09:17.774Z,19.87
2023-05-22T07:11:24.914Z,19.96
2023-05-22T07:13:32.285Z,20.17
2023-05-22T07:15:37.559Z,20.22
2023-05-22T07:17:47.131Z,20.32
2023-05-22T07:19:53.248Z,20.29
2023-05-22T07:22:00.281Z,20.40
2023-05-22T07:24:08.591Z,20.50
2023-05-22T07:26:17.696Z,20.61
2023-05-22T07:28:28.790Z,20.64
2023-05-22T07:30:50.110Z,20.58
2023-05-22T07:32:58.082Z,20.90
2023-05-22T07:35:03.942Z,20.95
2023-05-22T07:37:12.058Z,21.03
2023-05-22T07:39:18.087Z,20.89
2023-05-22T07:41:24.297Z,21.11
2023-05-22T07:43:29.658Z,21.46
2023-05-22T07:45:36.377Z,21.56
2023-05-22T07:47:45.484Z,21.52
2023-05-22T07:49:53.923Z,21.71
2023-05-22T07:51:59.001Z,21.77
2023-05-22T07:54:04.681Z,21.82
2023-05-22T07:56:09.955Z,21.62
2023-05-22T07:58:16.216Z,21.67
2023-05-22T08:00:25.518Z,22.03
2023-05-22T08:02:30.840Z,22.03
2023-05-22T08:04:36.194Z,22.08
2023-05-22T08:06:44.475Z,22.36
2023-05-22T08:08:49.557Z,22.55
2023-05-22T08:13:08.881Z,22.79
2023-05-22T08:15:15.026Z,22.81
2023-05-22T08:17:20.157Z,22.83
2023-05-22T08:19:25.880Z,22.92
2023-05-22T08:21:33.339Z,23.02
2023-05-22T08:23:41.614Z,23.15
2023-05-22T08:25:47.006Z,23.16
2023-05-22T08:27:52.402Z,23.28
2023-05-22T08:29:58.023Z,23.39
2023-05-22T08:32:03.166Z,23.56
2023-05-22T08:34:10.723Z,23.65
2023-05-22T08:36:16.480Z,23.71
2023-05-22T08:38:22.188Z,23.91
2023-05-22T08:40:38.949Z,24.15
2023-05-22T08:42:45.241Z,24.25
2023-05-22T08:44:51.382Z,24.31
2023-05-22T08:47:00.363Z,24.44
2023-05-22T08:49:07.696Z,24.66
2023-05-22T08:51:21.514Z,24.76
2023-05-22T08:53:29.012Z,24.88
2023-05-22T08:55:37.132Z,25.05
2023-05-22T08:57:42.853Z,25.14
2023-05-22T08:59:49.061Z,25.06
2023-05-22T09:01:55.596Z,25.00
2023-05-22T09:04:04.621Z,25.24
2023-05-22T09:06:11.314Z,25.35
2023-05-22T09:08:20.823Z,25.43
2023-05-22T09:10:26.595Z,25.39
2023-05-22T09:12:35.607Z,25.67
2023-05-22T09:14:45.738Z,26.00
2023-05-22T09:16:55.227Z,26.17
2023-05-22T09:19:00.573Z,26.37
2023-05-22T09:21:11.286Z,26.40
2023-05-22T09:23:25.655Z,26.57
2023-05-22T09:25:32.196Z,26.96
2023-05-22T09:27:39.968Z,27.12
2023-05-22T09:29:53.071Z,27.37
2023-05-22T09:31:58.688Z,27.29
2023-05-22T09:34:03.924Z,27.06
2023-05-22T09:36:13.689Z,27.17
2023-05-22T09:38:19.851Z,27.18
2023-05-22T09:40:26.363Z,27.31
2023-05-22T09:42:31.787Z,27.75
2023-05-22T09:44:39.582Z,27.81
2023-05-22T09:46:46.960Z,27.70
2023-05-22T09:48:55.000Z,27.85
2023-05-22T09:51:03.635Z,27.73
2023-05-22T09:53:09.573Z,28.08
2023-05-22T09:55:17.049Z,28.40
2023-05-22T09:57:23.851Z,28.61
2023-05-22T09:59:33.572Z,28.48
2023-05-22T10:01:42.835Z,28.92
2023-05-22T10:03:50.621Z,29.11
2023-05-22T10:05:58.975Z,29.41
2023-05-22T10:08:12.098Z,29.09
2023-05-22T10:10:21.438Z,29.19
2023-05-22T10:12:28.073Z,29.04
2023-05-22T10:14:33.401Z,29.02
2023-05-22T10:16:41.587Z,28.99
2023-05-22T10:18:50.422Z,28.83
2023-05-22T10:20:56.625Z,28.53
2023-05-22T10:23:02.398Z,28.50
2023-05-22T10:25:10.884Z,28.36
2023-05-22T10:27:16.220Z,28.42
2023-05-22T10:29:28.342Z,28.55
2023-05-22T10:31:45.464Z,28.89
2023-05-22T10:34:27.977Z,28.63
2023-05-22T10:36:48.338Z,29.30
2023-05-22T10:39:12.412Z,29.29
2023-05-22T10:41:19.196Z,29.23
2023-05-22T10:43:25.501Z,29.56
2023-05-22T10:45:31.955Z,29.63
2023-05-22T10:47:39.956Z,29.52
2023-05-22T10:49:49.767Z,29.35
2023-05-22T10:52:00.184Z,29.35
2023-05-22T10:54:05.886Z,29.43
2023-05-22T10:56:16.375Z,29.52
2023-05-22T10:58:28.363Z,29.96
2023-05-22T11:00:34.338Z,29.98
2023-05-22T11:02:50.095Z,30.32
2023-05-22T11:05:38.329Z,30.48
2023-05-22T11:07:44.240Z,29.98
2023-05-22T11:09:53.684Z,30.41
2023-05-22T11:12:22.844Z,30.64
2023-05-22T11:14:29.155Z,30.57
2023-05-22T11:16:36.192Z,30.50
2023-05-22T11:18:45.280Z,30.75
2023-05-22T11:20:51.062Z,30.51
2023-05-22T11:23:02.223Z,30.54
2023-05-22T11:25:11.264Z,30.33
2023-05-22T11:27:16.826Z,30.41
2023-05-22T11:29:22.083Z,30.67
2023-05-22T11:31:27.796Z,30.77
2023-05-22T11:33:33.288Z,31.14
2023-05-22T11:35:41.429Z,31.25
2023-05-22T11:37:47.616Z,31.43
2023-05-22T11:40:00.101Z,31.76
2023-05-22T11:42:05.329Z,31.98
2023-05-22T11:44:11.888Z,31.91
2023-05-22T11:46:17.072Z,32.00
2023-05-22T11:48:23.749Z,31.92
2023-05-22T11:50:40.816Z,31.74
2023-05-22T11:52:49.661Z,31.43
2023-05-22T11:54:55.913Z,31.57
2023-05-22T11:57:00.988Z,31.45
2023-05-22T11:59:06.441Z,31.72
2023-05-22T12:01:11.553Z,32.01
2023-05-22T12:03:17.854Z,32.17
2023-05-22T12:05:24.408Z,32.24
2023-05-22T12:07:30.727Z,32.60
2023-05-22T12:09:41.306Z,32.20
2023-05-22T12:11:49.487Z,32.49
2023-05-22T12:14:03.785Z,32.84
2023-05-22T12:16:22.997Z,33.16
2023-05-22T12:18:28.780Z,33.38
2023-05-22T12:20:33.877Z,33.76
2023-05-22T12:22:45.354Z,33.71
2023-05-22T12:24:55.846Z,34.15
2023-05-22T12:27:01.460Z,34.54
2023-05-22T12:29:07.611Z,34.81
2023-05-22T12:31:12.818Z,34.77
2023-05-22T12:33:18.480Z,35.03
2023-05-22T12:35:24.098Z,35.05
2023-05-22T12:37:29.743Z,35.07
2023-05-22T12:39:35.043Z,35.51
2023-05-22T12:41:42.892Z,35.49
2023-05-22T12:43:48.353Z,35.95
2023-05-22T12:45:53.466Z,36.46
2023-05-22T12:47:58.572Z,36.40
2023-05-22T12:50:03.725Z,36.20
2023-05-22T12:52:09.374Z,36.15
2023-05-22T12:54:15.780Z,36.76
2023-05-22T12:56:22.035Z,36.35
2023-05-22T12:58:29.916Z,35.61
2023-05-22T13:00:35.527Z,35.73
2023-05-22T13:02:40.749Z,36.33
2023-05-22T13:04:45.852Z,37.12
2023-05-22T13:06:51.024Z,37.89
2023-05-22T13:08:56.356Z,38.13
2023-05-22T13:11:01.518Z,38.05
2023-05-22T13:13:06.592Z,38.52
2023-05-22T13:15:15.617Z,38.57
2023-05-22T13:17:21.113Z,38.54
2023-05-22T13:19:26.295Z,39.12
2023-05-22T13:21:31.725Z,38.54
2023-05-22T13:23:37.054Z,38.30
2023-05-22T13:25:42.475Z,37.99
2023-05-22T13:27:47.683Z,37.26
2023-05-22T13:29:52.786Z,36.10
2023-05-22T13:32:00.394Z,34.28
2023-05-22T13:34:05.910Z,33.38
2023-05-22T13:36:11.531Z,32.67
2023-05-22T13:38:16.848Z,31.83
2023-05-22T13:40:23.071Z,31.01
2023-05-22T13:42:28.301Z,30.42
2023-05-22T13:44:33.524Z,30.23
2023-05-22T13:46:40.910Z,30.00
2023-05-22T13:48:48.885Z,30.05
2023-05-22T13:50:53.972Z,30.09
2023-05-22T13:52:59.332Z,30.12
2023-05-22T13:55:04.748Z,30.36
2023-05-22T13:57:09.950Z,31.76
2023-05-22T13:59:15.044Z,33.64
2023-05-22T14:01:20.145Z,34.40
2023-05-22T14:03:25.290Z,35.12
2023-05-22T14:05:33.641Z,35.22
2023-05-22T14:07:39.039Z,34.85
2023-05-22T14:09:44.127Z,34.96
2023-05-22T14:11:49.357Z,34.15
2023-05-22T14:13:54.931Z,33.95
2023-05-22T14:16:00.564Z,33.19
2023-05-22T14:18:05.734Z,32.49
2023-05-22T14:20:12.555Z,32.52
2023-05-22T14:22:20.187Z,31.98
2023-05-22T14:24:25.297Z,32.49
2023-05-22T14:26:30.404Z,33.26
2023-05-22T14:28:35.633Z,34.38
2023-05-22T14:30:40.790Z,34.36
2023-05-22T14:32:47.169Z,34.79
2023-05-22T14:34:52.580Z,35.75
2023-05-22T14:36:58.854Z,34.96
2023-05-22T14:39:06.606Z,35.19
2023-05-22T14:41:11.663Z,36.35
2023-05-22T14:43:17.289Z,36.76
2023-05-22T14:45:22.364Z,37.46
2023-05-22T14:47:27.853Z,37.36
2023-05-22T14:49:33.064Z,37.29
2023-05-22T14:51:38.128Z,36.90
2023-05-22T14:53:43.432Z,36.61
2023-05-22T14:55:51.820Z,36.24
2023-05-22T14:57:57.387Z,36.43
2023-05-22T15:00:02.408Z,36.86
2023-05-22T15:02:08.357Z,35.99
2023-05-22T15:04:13.424Z,36.14
2023-05-22T15:06:18.678Z,36.91
2023-05-22T15:08:23.722Z,36.81
2023-05-22T15:10:29.129Z,36.90
2023-05-22T15:12:37.081Z,37.54
2023-05-22T15:14:42.130Z,37.39
2023-05-22T15:16:50.354Z,37.53
2023-05-22T15:18:55.555Z,37.98
2023-05-22T15:21:01.242Z,37.04
2023-05-22T15:23:06.367Z,37.46
2023-05-22T15:25:15.469Z,37.59
2023-05-22T15:27:20.720Z,36.59
2023-05-22T15:29:29.273Z,34.90
2023-05-22T15:31:34.441Z,34.05
2023-05-22T15:33:40.194Z,33.48
2023-05-22T15:35:46.843Z,32.89
2023-05-22T15:37:51.874Z,33.21
2023-05-22T15:39:56.982Z,34.58
2023-05-22T15:42:06.443Z,34.50
2023-05-22T15:44:14.519Z,33.84
2023-05-22T15:46:22.544Z,33.35
2023-05-22T15:48:27.663Z,34.13
2023-05-22T15:50:33.087Z,35.50
2023-05-22T15:52:38.397Z,36.47
2023-05-22T15:54:44.171Z,36.85
2023-05-22T15:56:49.279Z,35.16
2023-05-22T15:58:54.656Z,32.98
2023-05-22T16:01:00.357Z,30.52
2023-05-22T16:03:09.139Z,29.30
2023-05-22T16:05:15.649Z,28.58
2023-05-22T16:07:20.986Z,27.84
2023-05-22T16:09:26.998Z,27.10
2023-05-22T16:11:32.084Z,26.29
2023-05-22T16:13:38.002Z,25.87
2023-05-22T16:15:44.669Z,25.44
2023-05-22T16:17:49.950Z,25.22
2023-05-22T16:19:57.578Z,24.87
2023-05-22T16:22:03.298Z,24.72
2023-05-22T16:24:10.040Z,24.36
2023-05-22T16:26:16.063Z,24.21
2023-05-22T16:28:21.110Z,24.15
2023-05-22T16:30:26.253Z,23.78
2023-05-22T16:32:31.426Z,23.71
2023-05-22T16:34:36.682Z,23.56
2023-05-22T16:36:44.356Z,23.58
2023-05-22T16:38:49.755Z,23.49
2023-05-22T16:40:56.341Z,23.26
2023-05-22T16:43:01.428Z,23.07
2023-05-22T16:45:07.224Z,23.00
2023-05-22T16:47:12.564Z,23.02
2023-05-22T16:49:17.701Z,23.01
2023-05-22T16:51:22.786Z,22.98
2023-05-22T16:53:30.765Z,23.02
2023-05-22T16:55:35.929Z,22.84
2023-05-22T16:57:42.847Z,22.67
2023-05-22T16:59:48.556Z,22.30
2023-05-22T17:01:53.715Z,21.71
2023-05-22T17:03:59.257Z,21.25
2023-05-22T17:06:04.426Z,20.75
2023-05-22T17:08:10.291Z,20.41
2023-05-22T17:10:18.356Z,20.08
2023-05-22T17:12:23.436Z,19.73
2023-05-22T17:14:28.482Z,19.39
2023-05-22T17:16:35.129Z,19.16
2023-05-22T17:18:41.433Z,19.03
2023-05-22T17:20:46.990Z,18.85
2023-05-22T17:22:52.529Z,18.68
2023-05-22T17:24:57.722Z,18.61
2023-05-22T17:27:06.842Z,18.58
2023-05-22T17:29:12.268Z,18.52
2023-05-22T17:31:17.780Z,18.48
2023-05-22T17:33:22.882Z,18.44
2023-05-22T17:35:28.449Z,18.44
2023-05-22T17:37:34.117Z,18.35
2023-05-22T17:39:39.188Z,18.33
2023-05-22T17:41:44.279Z,18.30
2023-05-22T17:43:51.939Z,18.26
2023-05-22T17:45:57.333Z,18.24
2023-05-22T17:48:02.517Z,18.25
2023-05-22T17:50:08.587Z,18.24
2023-05-22T17:52:14.175Z,18.23
2023-05-22T17:54:19.451Z,18.17
2023-05-22T17:56:25.221Z,18.10
2023-05-22T17:58:30.781Z,17.94
2023-05-22T18:00:38.560Z,17.97
2023-05-22T18:02:44.718Z,18.07
2023-05-22T18:04:49.992Z,18.12
2023-05-22T18:06:55.802Z,18.11
2023-05-22T18:09:02.328Z,18.25
2023-05-22T18:11:07.950Z,18.25
2023-05-22T18:13:13.687Z,18.28
2023-05-22T18:15:18.787Z,18.20
2023-05-22T18:17:27.093Z,18.18
2023-05-22T18:19:32.301Z,18.14
2023-05-22T18:21:37.620Z,18.22
2023-05-22T18:23:43.171Z,18.34
2023-05-22T18:25:49.248Z,18.41
2023-05-22T18:27:55.644Z,18.40
2023-05-22T18:30:00.845Z,18.25
2023-05-22T18:32:06.169Z,18.22
2023-05-22T18:34:13.864Z,18.27
2023-05-22T18:36:19.505Z,18.26
2023-05-22T18:38:25.360Z,18.28
2023-05-22T18:40:31.131Z,18.25
2023-05-22T18:42:37.513Z,18.19
2023-05-22T18:44:43.132Z,18.21
2023-05-22T18:46:48.635Z,18.18
2023-05-22T18:48:53.770Z,18.20
2023-05-22T18:51:01.499Z,18.09
2023-05-22T18:53:07.098Z,17.99
2023-05-22T18:55:13.229Z,17.87
2023-05-22T18:57:18.344Z,17.74
2023-05-22T18:59:24.043Z,17.74
2023-05-22T19:01:30.200Z,17.71
2023-05-22T19:03:35.376Z,17.72
2023-05-22T19:05:40.803Z,17.67
2023-05-22T19:07:48.757Z,17.53
2023-05-22T19:09:54.039Z,17.39
2023-05-22T19:11:59.128Z,17.33
2023-05-22T19:14:04.257Z,17.26
2023-05-22T19:16:09.609Z,17.19
2023-05-22T19:18:14.756Z,17.09
2023-05-22T19:20:20.156Z,16.99
2023-05-22T19:22:25.327Z,16.97
2023-05-22T19:24:33.019Z,17.02
2023-05-22T19:26:38.185Z,16.99
2023-05-22T19:28:43.425Z,16.94
2023-05-22T19:30:48.752Z,16.83
2023-05-22T19:32:56.230Z,16.85
2023-05-22T19:35:01.686Z,16.84
2023-05-22T19:37:07.484Z,16.75
2023-05-22T19:39:13.512Z,16.68
2023-05-22T19:41:23.207Z,16.66
2023-05-22T19:43:31.597Z,16.62
2023-05-22T19:45:36.745Z,16.64
2023-05-22T19:47:41.850Z,16.56
2023-05-22T19:49:46.962Z,16.40
2023-05-22T19:51:54.106Z,16.41
2023-05-22T19:54:00.605Z,16.34
2023-05-22T19:56:06.791Z,16.36
2023-05-22T19:58:14.672Z,16.42
2023-05-22T20:00:21.211Z,16.49
2023-05-22T20:02:26.395Z,16.57
2023-05-22T20:04:31.853Z,16.51
2023-05-22T20:06:36.940Z,16.44
2023-05-22T20:08:42.261Z,16.46
2023-05-22T20:10:47.606Z,16.45
2023-05-22T20:12:57.073Z,16.46
2023-05-22T20:15:07.035Z,16.49
2023-05-22T20:17:12.244Z,16.54
2023-05-22T20:19:17.695Z,16.52
2023-05-22T20:21:23.074Z,16.58
2023-05-22T20:23:28.814Z,16.47
2023-05-22T20:25:34.061Z,16.44
2023-05-22T20:27:39.672Z,16.46
2023-05-22T20:29:44.806Z,16.44
2023-05-22T20:31:56.114Z,16.48
2023-05-22T20:34:02.122Z,16.47
2023-05-22T20:36:07.791Z,16.45
2023-05-22T20:38:14.503Z,16.40
2023-05-22T20:40:19.604Z,16.37
2023-05-22T20:42:25.377Z,16.31
2023-05-22T20:44:31.845Z,16.29
2023-05-22T20:46:36.997Z,16.27
2023-05-22T20:48:47.120Z,16.18
2023-05-22T20:50:52.473Z,16.14
2023-05-22T20:53:00.255Z,16.04
2023-05-22T20:55:05.837Z,15.98
2023-05-22T20:57:11.082Z,15.92
2023-05-22T20:59:16.678Z,15.91
2023-05-22T21:01:22.591Z,15.91
2023-05-22T21:03:28.352Z,15.88
2023-05-22T21:05:37.284Z,15.74
2023-05-22T21:07:43.545Z,15.66
2023-05-22T21:09:49.619Z,15.64
2023-05-22T21:11:55.090Z,15.73
2023-05-22T21:14:00.686Z,15.82
2023-05-22T21:16:05.869Z,15.80
2023-05-22T21:20:18.774Z,15.66
2023-05-22T21:22:26.494Z,15.62
2023-05-22T21:24:31.983Z,15.63
2023-05-22T21:26:37.114Z,15.56
2023-05-22T21:28:42.368Z,15.46
2023-05-22T21:30:47.512Z,15.37
2023-05-22T21:32:52.759Z,15.31
2023-05-22T21:34:58.245Z,15.33
2023-05-22T21:37:04.588Z,15.32
2023-05-22T21:39:12.668Z,15.22
2023-05-22T21:41:18.834Z,15.23
2023-05-22T21:43:25.547Z,15.22
2023-05-22T21:45:31.296Z,15.13
2023-05-22T21:47:36.429Z,15.08
2023-05-22T21:49:41.555Z,14.98
2023-05-22T21:51:46.830Z,14.89
2023-05-22T21:53:52.287Z,14.83
2023-05-22T21:55:59.971Z,14.76
2023-05-22T21:58:05.090Z,14.75
2023-05-22T22:00:12.205Z,14.76
2023-05-22T22:02:19.165Z,14.64
2023-05-22T22:04:24.299Z,14.51
2023-05-22T22:06:29.736Z,14.47
2023-05-22T22:08:34.850Z,14.38
2023-05-22T22:10:40.200Z,14.40
2023-05-22T22:12:48.876Z,14.39
2023-05-22T22:14:54.628Z,14.36
2023-05-22T22:17:00.922Z,14.39
2023-05-22T22:19:06.349Z,14.41
2023-05-22T22:21:12.200Z,14.40
2023-05-22T22:23:32.946Z,14.44
2023-05-22T22:25:39.674Z,14.47
2023-05-22T22:27:51.239Z,14.50
2023-05-22T22:29:56.713Z,14.34
2023-05-22T22:32:02.100Z,14.31
2023-05-22T22:34:08.349Z,14.43
2023-05-22T22:36:13.470Z,14.53
2023-05-22T22:38:18.667Z,14.57
2023-05-22T22:40:26.705Z,14.63
2023-05-22T22:42:32.886Z,14.64
2023-05-22T22:44:40.926Z,14.73
2023-05-22T22:46:46.282Z,14.67
2023-05-22T22:48:51.539Z,14.59
2023-05-22T22:50:56.602Z,14.51
2023-05-22T22:53:01.999Z,14.54
2023-05-22T22:55:09.226Z,14.57
2023-05-22T22:57:14.580Z,14.59
2023-05-22T22:59:20.023Z,14.55
2023-05-22T23:01:28.092Z,14.56
2023-05-22T23:03:33.876Z,14.55
2023-05-22T23:05:39.449Z,14.46
2023-05-22T23:07:45.010Z,14.37
2023-05-22T23:09:50.247Z,14.35
2023-05-22T23:11:55.879Z,14.48
2023-05-22T23:14:04.132Z,14.54
2023-05-22T23:16:09.559Z,14.54
2023-05-22T23:18:17.704Z,14.61
2023-05-22T23:20:23.357Z,14.58
2023-05-22T23:22:28.439Z,14.57
2023-05-22T23:24:33.940Z,14.65
2023-05-22T23:26:39.712Z,14.70
2023-05-22T23:28:45.088Z,14.71
2023-05-22T23:30:52.746Z,14.79
2023-05-22T23:32:57.966Z,14.77
2023-05-22T23:35:07.555Z,14.77
2023-05-22T23:37:12.780Z,14.79
2023-05-22T23:39:17.933Z,14.84
2023-05-22T23:41:24.625Z,14.82
2023-05-22T23:43:30.235Z,14.85
2023-05-22T23:45:35.586Z,14.81
2023-05-22T23:47:40.928Z,14.87
2023-05-22T23:49:46.075Z,14.87
2023-05-22T23:51:53.911Z,14.88
2023-05-22T23:53:59.773Z,14.88
2023-05-22T23:56:04.888Z,14.88
2023-05-22T23:58:10.002Z,14.96
